Time;durP1;ratioP1;P1;durP2;ratioP2;P2;SDS_P1;SDS_P2;PMS_P1;PMS_P2;Temp;Humidity;BMP_temperature;BMP_pressure;BME280_temperature;BME280_humidity;BME280_pressure;Samples;Min_cycle;Max_cycle;Signal;HPM_P1;HPM_P2
2022/10/01 00:00:14;;;;;;;11.37;10.63;;;;;;;14.05;95.90;93269.97;5128338;28;20297;-77
2022/10/01 00:02:39;;;;;;;11.63;10.83;;;;;;;14.27;94.28;93263.13;5130376;28;20222;-77
2022/10/01 00:05:06;;;;;;;11.20;10.40;;;;;;;14.32;94.81;93270.13;5132736;28;20213;-77
2022/10/01 00:07:44;;;;;;;11.03;10.03;;;;;;;14.09;95.95;93263.09;5131863;28;20291;-77
2022/10/01 00:10:12;;;;;;;11.03;10.23;;;;;;;14.21;94.66;93268.72;5131646;28;20190;-77
2022/10/01 00:12:44;;;;;;;11.73;11.03;;;;;;;14.29;94.98;93273.34;5132621;28;20236;-77
2022/10/01 00:15:11;;;;;;;11.20;10.40;;;;;;;14.26;95.92;93255.53;5132543;28;20200;-77
2022/10/01 00:17:37;;;;;;;11.70;10.70;;;;;;;14.15;96.34;93264.56;5131530;28;20231;-77
2022/10/01 00:20:04;;;;;;;11.43;10.73;;;;;;;14.15;96.69;93265.38;5132116;28;20190;-77
2022/10/01 00:22:31;;;;;;;11.63;10.83;;;;;;;14.05;97.73;93273.41;5131488;28;20223;-77
2022/10/01 00:24:58;;;;;;;11.60;10.73;;;;;;;13.95;98.24;93273.50;5132745;28;20167;-77
2022/10/01 00:27:24;;;;;;;11.93;10.87;;;;;;;13.99;96.73;93243.00;5132009;27;20219;-77
2022/10/01 00:29:49;;;;;;;12.33;11.43;;;;;;;13.91;97.03;93227.13;5132488;28;20184;-78
2022/10/01 00:32:15;;;;;;;12.20;11.30;;;;;;;13.66;99.58;93241.34;5132051;27;20227;-78
2022/10/01 00:34:40;;;;;;;12.47;11.77;;;;;;;13.86;99.57;93263.91;5132945;28;20243;-77
2022/10/01 00:37:08;;;;;;;11.73;10.93;;;;;;;13.78;99.63;93249.59;5131752;27;20223;-77
2022/10/01 00:39:33;;;;;;;10.93;10.23;;;;;;;13.67;100.00;93247.34;5130861;28;20254;-77
2022/10/01 00:41:59;;;;;;;12.70;11.83;;;;;;;13.67;100.00;93232.41;5131211;28;20234;-77
2022/10/01 00:44:36;;;;;;;11.33;10.63;;;;;;;13.66;100.00;93262.34;5130968;28;20184;-77
2022/10/01 00:47:11;;;;;;;12.90;11.90;;;;;;;13.65;100.00;93247.63;5131403;28;20242;-77
2022/10/01 00:49:39;;;;;;;11.80;10.80;;;;;;;13.64;99.93;93227.72;5132018;28;20171;-77
2022/10/01 00:52:14;;;;;;;12.43;11.53;;;;;;;13.83;99.70;93246.13;5131164;27;20991;-77
2022/10/01 00:54:48;;;;;;;12.10;11.33;;;;;;;13.86;99.62;93251.59;5131463;28;20366;-77
2022/10/01 00:57:16;;;;;;;11.40;10.53;;;;;;;13.74;99.45;93245.94;5131724;28;20237;-78
2022/10/01 00:59:42;;;;;;;12.03;11.07;;;;;;;13.89;98.04;93251.03;5131255;28;20219;-78
2022/10/01 01:02:09;;;;;;;11.57;10.57;;;;;;;13.81;98.64;93235.09;5132225;28;20223;-77
2022/10/01 01:04:35;;;;;;;13.17;11.87;;;;;;;13.91;98.43;93235.78;5131162;28;20187;-78
2022/10/01 01:07:03;;;;;;;11.67;10.87;;;;;;;14.04;98.68;93244.75;5130604;27;20221;-78
2022/10/01 01:09:33;;;;;;;11.70;10.77;;;;;;;13.85;100.00;93244.75;5130541;28;20862;-77
2022/10/01 01:12:01;;;;;;;12.63;11.83;;;;;;;13.94;99.67;93237.84;5128431;28;20226;-78
2022/10/01 01:14:40;;;;;;;11.13;10.43;;;;;;;13.95;100.00;93242.00;5129303;28;20199;-78
2022/10/01 01:17:14;;;;;;;10.93;10.23;;;;;;;13.92;99.77;93239.94;5130808;28;20241;-77
2022/10/01 01:19:51;;;;;;;11.23;10.33;;;;;;;13.80;98.99;93226.47;5131005;28;20180;-77
2022/10/01 01:22:20;;;;;;;11.57;10.57;;;;;;;14.01;98.30;93237.47;5131214;28;20230;-78
2022/10/01 01:25:27;;;;;;;12.20;11.23;;;;;;;14.32;95.13;93243.88;5131299;28;20179;-77
2022/10/01 01:28:17;;;;;;;12.30;11.27;;;;;;;13.92;97.92;93245.22;5127215;28;20245;-78
2022/10/01 01:30:43;;;;;;;12.30;11.40;;;;;;;13.84;97.61;93232.72;5130726;28;20192;-78
2022/10/01 01:33:16;;;;;;;12.73;11.73;;;;;;;13.62;98.88;93229.84;5130880;27;20280;-78
2022/10/01 01:35:52;;;;;;;10.93;10.13;;;;;;;13.73;99.65;93226.03;5130943;28;20250;-78
2022/10/01 01:38:23;;;;;;;12.50;11.60;;;;;;;13.57;100.00;93240.38;5130091;28;20233;-77
2022/10/01 01:40:55;;;;;;;11.33;10.63;;;;;;;13.66;100.00;93243.97;5131246;28;20190;-78
2022/10/01 01:43:28;;;;;;;12.63;11.47;;;;;;;13.30;100.00;93231.53;5130047;27;20230;-77
2022/10/01 01:45:53;;;;;;;12.00;11.10;;;;;;;13.31;100.00;93248.84;5130857;28;20188;-77
2022/10/01 01:48:22;;;;;;;12.37;11.30;;;;;;;13.51;100.00;93249.38;5131480;28;20223;-77
2022/10/01 01:51:11;;;;;;;11.50;10.70;;;;;;;13.52;100.00;93253.59;5130725;28;20183;-78
2022/10/01 01:53:37;;;;;;;12.17;11.37;;;;;;;13.36;100.00;93239.06;5130093;28;20250;-77
2022/10/01 01:56:05;;;;;;;12.40;11.43;;;;;;;13.12;100.00;93203.44;5129884;28;20237;-77
2022/10/01 01:58:32;;;;;;;13.33;11.83;;;;;;;13.52;100.00;93240.47;5130996;28;20216;-77
2022/10/01 02:00:57;;;;;;;12.43;11.53;;;;;;;13.49;100.00;93216.63;5129658;28;21081;-78
2022/10/01 02:03:25;;;;;;;13.90;12.77;;;;;;;13.42;100.00;93227.47;5130815;28;20254;-77
2022/10/01 02:06:27;;;;;;;12.47;11.67;;;;;;;13.52;100.00;93232.59;5130903;28;20884;-77
2022/10/01 02:09:16;;;;;;;13.40;12.33;;;;;;;13.49;100.00;93243.66;5128048;28;20237;-79
2022/10/01 02:11:57;;;;;;;11.77;10.77;;;;;;;13.26;100.00;93206.94;5126480;28;20185;-77
2022/10/01 02:14:37;;;;;;;11.80;10.90;;;;;;;13.30;100.00;93205.31;5131439;28;20190;-78
2022/10/01 02:17:12;;;;;;;12.40;11.53;;;;;;;13.26;100.00;93241.78;5127198;28;20249;-78
2022/10/01 02:20:01;;;;;;;12.33;11.40;;;;;;;13.56;100.00;93269.53;5128957;28;20186;-78
2022/10/01 02:22:53;;;;;;;13.53;11.90;;;;;;;13.47;100.00;93258.09;5128882;28;20246;-79
2022/10/01 02:25:25;;;;;;;12.13;11.43;;;;;;;13.37;100.00;93250.34;5129337;28;20199;-78
2022/10/01 02:28:06;;;;;;;12.80;11.80;;;;;;;13.62;100.00;93284.94;5129673;28;20239;-78
2022/10/01 02:30:34;;;;;;;12.47;11.67;;;;;;;13.71;100.00;93283.25;5129661;28;20203;-79
2022/10/01 02:33:03;;;;;;;13.17;12.30;;;;;;;13.83;100.00;93260.03;5129094;28;20272;-78
2022/10/01 02:35:32;;;;;;;12.20;11.40;;;;;;;13.92;100.00;93270.66;5129967;28;20213;-78
2022/10/01 02:38:00;;;;;;;11.77;11.07;;;;;;;14.06;100.00;93264.44;5127704;28;20230;-78
2022/10/01 02:40:28;;;;;;;12.03;11.03;;;;;;;13.98;100.00;93253.78;5130583;28;20167;-78
2022/10/01 02:42:59;;;;;;;12.67;11.67;;;;;;;14.01;100.00;93280.25;5128627;27;20226;-78
2022/10/01 02:45:26;;;;;;;12.43;11.63;;;;;;;13.89;100.00;93247.59;5128683;28;20180;-78
2022/10/01 02:48:01;;;;;;;12.93;12.00;;;;;;;14.03;99.00;93257.13;5128066;28;20203;-78
2022/10/01 02:50:33;;;;;;;12.53;11.53;;;;;;;14.02;99.10;93246.91;5129631;28;20186;-78
2022/10/01 02:53:04;;;;;;;12.80;12.00;;;;;;;14.11;100.00;93253.88;5129091;28;20215;-78
2022/10/01 02:55:34;;;;;;;11.83;10.83;;;;;;;14.26;100.00;93298.34;5127831;28;20191;-78
2022/10/01 02:58:00;;;;;;;12.50;11.53;;;;;;;14.24;99.71;93295.19;5145281;27;20235;-78
2022/10/01 03:00:26;;;;;;;13.20;12.03;;;;;;;14.27;99.18;93286.00;5129966;28;20230;-79
2022/10/01 03:02:51;;;;;;;13.17;12.07;;;;;;;14.33;99.56;93298.75;5128204;28;20246;-78
2022/10/01 03:05:19;;;;;;;12.37;11.50;;;;;;;14.44;97.37;93284.41;5126903;28;20179;-79
2022/10/01 03:07:45;;;;;;;12.27;11.37;;;;;;;14.49;98.29;93286.97;5129113;28;20255;-78
2022/10/01 03:10:12;;;;;;;12.17;11.37;;;;;;;14.56;98.19;93291.06;5128156;28;20183;-79
2022/10/01 03:12:40;;;;;;;12.40;11.50;;;;;;;14.61;98.52;93288.38;5129718;27;20227;-78
2022/10/01 03:15:06;;;;;;;13.33;12.43;;;;;;;14.33;99.63;93251.47;5129319;28;20197;-78
2022/10/01 03:17:31;;;;;;;11.97;10.90;;;;;;;14.47;100.00;93283.06;5128593;28;20227;-78
2022/10/01 03:19:56;;;;;;;11.93;11.03;;;;;;;14.43;100.00;93267.09;5128920;28;20248;-78
2022/10/01 03:22:22;;;;;;;11.03;10.30;;;;;;;14.48;100.00;93276.75;5126916;28;20264;-78
2022/10/01 03:24:48;;;;;;;12.60;11.67;;;;;;;14.44;100.00;93275.75;5127700;28;20242;-78
2022/10/01 03:27:14;;;;;;;12.57;11.47;;;;;;;14.30;100.00;93246.03;5129098;28;20247;-78
2022/10/01 03:29:39;;;;;;;12.47;11.57;;;;;;;14.54;100.00;93285.34;5127906;28;20255;-78
2022/10/01 03:32:04;;;;;;;12.67;11.63;;;;;;;14.10;100.00;93225.28;5129412;28;20278;-78
2022/10/01 03:34:30;;;;;;;12.43;11.53;;;;;;;14.07;100.00;93257.34;5126312;28;20215;-78
2022/10/01 03:36:55;;;;;;;12.63;11.57;;;;;;;14.26;100.00;93272.06;5128574;28;20245;-79
2022/10/01 03:39:21;;;;;;;12.57;11.67;;;;;;;14.35;100.00;93286.13;5128397;28;20191;-78
2022/10/01 03:41:46;;;;;;;12.70;11.67;;;;;;;14.31;100.00;93298.28;5128191;28;20278;-78
2022/10/01 03:44:12;;;;;;;11.73;10.83;;;;;;;14.25;100.00;93249.50;5129229;28;20183;-78
2022/10/01 03:46:37;;;;;;;11.83;10.97;;;;;;;14.32;100.00;93270.94;5128603;28;20203;-78
2022/10/01 03:49:02;;;;;;;16.27;10.43;;;;;;;13.99;100.00;93250.88;5128703;28;20218;-78
2022/10/01 03:51:28;;;;;;;12.10;11.30;;;;;;;14.36;100.00;93279.81;5127916;28;20244;-79
2022/10/01 03:53:55;;;;;;;11.70;10.90;;;;;;;13.96;100.00;93272.44;5128645;27;20260;-78
2022/10/01 03:56:21;;;;;;;12.10;11.23;;;;;;;14.04;100.00;93284.94;5127196;28;20263;-78
2022/10/01 03:58:46;;;;;;;12.43;11.53;;;;;;;14.36;99.28;93287.69;5128161;28;20219;-78
2022/10/01 04:01:12;;;;;;;13.30;12.30;;;;;;;14.00;100.00;93285.78;5128207;28;20208;-78
2022/10/01 04:03:37;;;;;;;12.67;11.77;;;;;;;14.02;100.00;93255.56;5123762;28;20223;-78
2022/10/01 04:06:03;;;;;;;12.73;11.87;;;;;;;13.52;100.00;93187.22;5128223;28;20188;-79
2022/10/01 04:08:28;;;;;;;13.17;12.30;;;;;;;13.88;100.00;93236.31;5128433;28;20713;-78
2022/10/01 04:10:53;;;;;;;12.53;11.53;;;;;;;13.78;100.00;93223.34;5127469;28;20180;-78
2022/10/01 04:13:19;;;;;;;12.70;11.70;;;;;;;14.07;100.00;93260.75;5128401;28;20229;-79
2022/10/01 04:15:44;;;;;;;13.20;12.10;;;;;;;14.01;100.00;93259.25;5128542;28;20183;-79
2022/10/01 04:18:10;;;;;;;11.83;11.03;;;;;;;13.90;100.00;93257.81;5125879;28;20968;-78
2022/10/01 04:20:36;;;;;;;11.77;10.97;;;;;;;13.82;100.00;93255.81;5126511;28;20195;-73
2022/10/01 04:23:03;;;;;;;13.23;12.10;;;;;;;13.89;100.00;93261.53;5124969;28;20315;-74
2022/10/01 04:25:29;;;;;;;12.80;12.00;;;;;;;13.78;100.00;93252.22;5125164;28;20192;-72
2022/10/01 04:28:00;;;;;;;12.40;11.50;;;;;;;13.64;100.00;93261.03;5123776;28;20235;-78
2022/10/01 04:30:28;;;;;;;12.90;12.03;;;;;;;13.80;100.00;93267.69;5127369;28;20194;-72
2022/10/01 04:32:54;;;;;;;12.47;11.20;;;;;;;13.67;100.00;93239.47;5124229;28;20223;-73
2022/10/01 04:35:21;;;;;;;13.50;12.20;;;;;;;13.59;100.00;93277.63;5127115;28;20213;-74
2022/10/01 04:37:47;;;;;;;12.93;11.93;;;;;;;13.39;100.00;93256.09;5127465;28;20637;-76
2022/10/01 04:40:12;;;;;;;14.10;12.87;;;;;;;13.72;100.00;93253.34;5127727;28;20183;-74
2022/10/01 04:42:41;;;;;;;13.03;11.77;;;;;;;13.86;100.00;93262.09;5126915;28;20215;-73
2022/10/01 04:45:08;;;;;;;12.53;11.63;;;;;;;13.79;100.00;93240.63;5126602;28;20172;-71
2022/10/01 04:47:33;;;;;;;13.20;11.97;;;;;;;13.69;100.00;93259.16;5130271;28;20242;-75
2022/10/01 04:49:58;;;;;;;13.83;12.53;;;;;;;13.89;100.00;93264.16;5130965;28;20183;-76
2022/10/01 04:52:24;;;;;;;13.83;12.57;;;;;;;14.15;100.00;93289.00;5129864;28;20219;-73
2022/10/01 04:54:51;;;;;;;11.83;11.03;;;;;;;14.21;99.66;93290.47;5131062;28;20183;-73
2022/10/01 04:57:18;;;;;;;12.80;11.80;;;;;;;14.31;99.29;93269.38;5129239;27;20247;-79
2022/10/01 04:59:43;;;;;;;12.27;11.27;;;;;;;14.29;100.00;93279.38;5131803;28;20275;-77
2022/10/01 05:02:08;;;;;;;12.50;11.40;;;;;;;14.43;99.87;93277.59;5128314;28;20220;-79
2022/10/01 05:04:34;;;;;;;13.03;12.07;;;;;;;14.42;100.00;93293.66;5131345;28;20210;-76
2022/10/01 05:06:59;;;;;;;12.63;11.53;;;;;;;14.43;100.00;93285.47;5129611;28;20215;-76
2022/10/01 05:09:25;;;;;;;12.30;11.30;;;;;;;14.52;98.24;93295.34;5131152;28;20199;-77
2022/10/01 05:11:50;;;;;;;12.13;11.23;;;;;;;14.31;99.14;93316.66;5129512;28;20222;-75
2022/10/01 05:14:19;;;;;;;11.77;10.97;;;;;;;14.26;97.75;93306.22;5131277;28;20232;-75
2022/10/01 05:16:44;;;;;;;13.03;11.83;;;;;;;14.47;97.12;93309.34;5129913;28;20215;-82
2022/10/01 05:19:10;;;;;;;12.80;11.90;;;;;;;14.65;96.32;93305.13;5125170;27;20278;-79
2022/10/01 05:21:36;;;;;;;12.60;11.53;;;;;;;14.64;95.02;93282.53;5128953;27;20250;-78
2022/10/01 05:24:01;;;;;;;12.57;11.60;;;;;;;15.01;93.70;93290.34;5130114;28;20168;-81
2022/10/01 05:26:28;;;;;;;11.50;10.37;;;;;;;15.42;91.26;93310.47;5129511;28;20179;-79
2022/10/01 05:28:53;;;;;;;12.23;11.13;;;;;;;15.81;90.40;93297.59;5129137;28;20235;-76
2022/10/01 05:31:19;;;;;;;14.17;12.67;;;;;;;15.78;90.79;93315.84;5129452;27;20199;-78
2022/10/01 05:33:44;;;;;;;11.70;11.00;;;;;;;15.73;92.44;93323.84;5128501;27;20231;-79
2022/10/01 05:36:10;;;;;;;12.63;11.83;;;;;;;15.50;92.87;93315.03;5126710;27;20219;-78
2022/10/01 05:38:36;;;;;;;12.27;11.33;;;;;;;16.17;89.58;93329.31;5122535;27;20224;-78
2022/10/01 05:41:04;;;;;;;10.90;10.10;;;;;;;16.51;86.21;93331.50;5127832;27;20187;-78
2022/10/01 05:43:30;;;;;;;13.40;12.40;;;;;;;16.62;87.92;93325.72;5126559;27;20218;-76
2022/10/01 05:45:59;;;;;;;12.67;11.77;;;;;;;16.69;85.51;93336.63;5128264;27;20187;-81
2022/10/01 05:48:25;;;;;;;12.70;11.63;;;;;;;16.54;88.06;93321.16;5128532;28;20226;-78
2022/10/01 05:50:50;;;;;;;12.07;11.17;;;;;;;16.81;86.57;93297.31;5129086;28;20263;-85
2022/10/01 05:53:16;;;;;;;11.83;10.83;;;;;;;16.64;87.91;93306.97;5128045;27;20227;-87
2022/10/01 05:55:41;;;;;;;12.70;11.70;;;;;;;15.84;89.75;93302.28;5127239;27;20172;-84
2022/10/01 05:58:09;;;;;;;12.17;11.30;;;;;;;16.28;87.46;93309.53;5125625;27;20259;-83
2022/10/01 06:00:35;;;;;;;10.97;10.33;;;;;;;16.12;85.77;93308.31;5128867;28;20222;-87
2022/10/01 06:03:02;;;;;;;11.33;10.63;;;;;;;16.25;88.15;93344.38;5127946;28;20224;-80
2022/10/01 06:05:30;;;;;;;12.03;11.23;;;;;;;16.32;86.65;93322.91;5129603;28;20175;-80
2022/10/01 06:07:56;;;;;;;12.37;11.47;;;;;;;16.34;86.62;93300.47;5122863;27;20229;-81
2022/10/01 06:10:22;;;;;;;12.07;11.23;;;;;;;16.62;88.42;93319.66;5127140;27;20175;-78
2022/10/01 06:12:48;;;;;;;11.10;10.37;;;;;;;16.68;83.90;93310.56;5129750;27;20223;-78
2022/10/01 06:15:14;;;;;;;11.00;10.10;;;;;;;16.93;82.20;93323.16;5128201;28;20187;-78
2022/10/01 06:17:43;;;;;;;11.67;10.83;;;;;;;17.37;79.59;93318.63;5129280;27;20227;-77
2022/10/01 06:20:11;;;;;;;10.97;9.87;;;;;;;17.51;78.24;93324.63;5125485;27;20172;-77
2022/10/01 06:22:37;;;;;;;10.27;9.33;;;;;;;17.54;76.90;93358.34;5128185;27;20227;-76
2022/10/01 06:25:04;;;;;;;11.23;10.23;;;;;;;17.60;76.16;93354.50;5125788;28;20745;-76
2022/10/01 06:27:29;;;;;;;17.60;13.10;;;;;;;17.29;79.69;93364.22;5124622;27;20245;-76
2022/10/01 06:29:54;;;;;;;14.17;11.90;;;;;;;16.94;80.58;93373.00;5126922;28;20184;-78
2022/10/01 06:32:20;;;;;;;19.63;13.00;;;;;;;16.85;81.22;93374.78;5128641;27;20319;-77
2022/10/01 06:34:45;;;;;;;13.77;11.67;;;;;;;16.99;78.97;93386.06;5130545;28;20180;-73
2022/10/01 06:37:10;;;;;;;12.50;10.60;;;;;;;16.66;79.99;93355.69;5129940;28;20230;-76
2022/10/01 06:39:36;;;;;;;15.27;11.47;;;;;;;16.80;79.47;93360.91;5129463;28;20187;-77
2022/10/01 06:42:01;;;;;;;14.63;10.77;;;;;;;17.01;78.12;93362.03;5128095;28;20231;-77
2022/10/01 06:44:26;;;;;;;12.80;11.70;;;;;;;16.74;79.39;93359.47;5128549;28;20209;-77
2022/10/01 06:46:52;;;;;;;12.33;11.00;;;;;;;16.75;82.47;93353.09;5125108;27;20239;-77
2022/10/01 06:49:19;;;;;;;12.93;11.70;;;;;;;16.79;81.51;93340.91;5129994;28;20768;-77
2022/10/01 06:54:29;;;;;;;13.10;11.93;;;;;;;16.74;80.77;93335.72;5128990;28;20194;-77
2022/10/01 06:56:54;;;;;;;14.63;13.33;;;;;;;16.37;83.15;93346.53;5126791;28;20219;-77
2022/10/01 06:59:19;;;;;;;12.67;11.60;;;;;;;16.62;83.04;93333.63;5129254;28;20254;-77
2022/10/01 07:01:48;;;;;;;14.87;13.03;;;;;;;16.67;81.41;93325.59;5128009;28;20248;-77
2022/10/01 07:04:14;;;;;;;13.93;12.50;;;;;;;16.86;83.01;93360.50;5130024;28;20176;-77
2022/10/01 07:06:39;;;;;;;13.67;12.47;;;;;;;16.96;82.20;93355.00;5129568;28;20199;-77
2022/10/01 07:09:04;;;;;;;13.77;12.43;;;;;;;16.59;84.33;93380.91;5127825;28;20188;-77
2022/10/01 07:11:30;;;;;;;13.53;12.33;;;;;;;16.56;84.52;93386.75;5129645;28;20227;-77
2022/10/01 07:13:56;;;;;;;13.70;12.23;;;;;;;16.14;87.58;93358.84;5127648;28;20220;-77
2022/10/01 07:16:22;;;;;;;16.10;13.97;;;;;;;16.45;87.19;93401.22;5129842;28;20897;-77
2022/10/01 07:18:47;;;;;;;13.43;12.13;;;;;;;16.29;87.16;93403.34;5129163;28;20223;-77
2022/10/01 07:21:12;;;;;;;12.50;11.37;;;;;;;16.51;86.33;93400.03;5129943;28;20191;-77
2022/10/01 07:23:38;;;;;;;12.37;11.37;;;;;;;16.48;86.08;93404.06;5128998;28;20287;-77
2022/10/01 07:26:04;;;;;;;11.83;10.67;;;;;;;16.56;83.93;93392.03;5129077;28;20211;-77
2022/10/01 07:28:29;;;;;;;10.90;10.13;;;;;;;16.64;81.05;93391.34;5128105;28;20219;-77
2022/10/01 07:31:01;;;;;;;13.00;11.90;;;;;;;16.69;84.37;93397.28;5129778;28;20251;-77
2022/10/01 07:33:27;;;;;;;12.00;10.80;;;;;;;16.92;79.52;93374.34;5128314;28;20234;-77
2022/10/01 07:35:53;;;;;;;11.80;10.70;;;;;;;16.93;81.39;93376.72;5128710;28;20262;-78
2022/10/01 07:38:19;;;;;;;13.67;12.37;;;;;;;17.12;82.87;93395.78;5129137;28;20215;-78
2022/10/01 07:40:50;;;;;;;12.33;11.23;;;;;;;17.38;79.20;93373.00;5128610;28;20187;-78
2022/10/01 07:43:15;;;;;;;13.83;12.43;;;;;;;17.45;76.76;93362.03;5127975;28;20218;-78
2022/10/01 07:45:42;;;;;;;11.83;10.73;;;;;;;17.02;77.84;93387.31;5129133;28;20216;-78
2022/10/01 07:48:08;;;;;;;11.40;10.57;;;;;;;17.53;77.66;93393.78;5128322;28;20235;-78
2022/10/01 07:50:33;;;;;;;13.10;11.90;;;;;;;17.89;79.00;93390.22;5128614;28;20195;-78
2022/10/01 07:52:58;;;;;;;12.07;11.13;;;;;;;17.85;77.57;93376.06;5129334;28;20219;-77
2022/10/01 07:55:26;;;;;;;11.77;10.70;;;;;;;18.45;74.58;93380.53;5128356;28;20194;-78
2022/10/01 07:58:00;;;;;;;12.37;11.27;;;;;;;18.57;71.51;93378.06;5128050;28;20292;-77
2022/10/01 08:00:28;;;;;;;11.17;10.07;;;;;;;18.71;68.66;93388.50;5127505;28;20222;-78
2022/10/01 08:02:55;;;;;;;11.23;10.07;;;;;;;18.20;72.81;93393.63;5128988;28;20241;-78
2022/10/01 08:05:22;;;;;;;11.53;10.50;;;;;;;18.63;72.48;93382.09;5128569;28;20268;-78
2022/10/01 08:07:48;;;;;;;11.53;10.57;;;;;;;18.80;70.30;93368.16;5128819;28;20211;-78
2022/10/01 08:10:16;;;;;;;11.63;10.73;;;;;;;18.74;74.43;93372.78;5127995;28;20268;-77
2022/10/01 08:12:42;;;;;;;11.60;10.70;;;;;;;18.26;77.38;93350.09;5129232;28;20220;-78
2022/10/01 08:15:09;;;;;;;14.10;12.73;;;;;;;18.39;74.28;93330.72;5128685;28;20237;-78
2022/10/01 08:17:36;;;;;;;12.47;11.57;;;;;;;18.78;73.86;93326.13;5128438;28;20236;-78
2022/10/01 08:20:02;;;;;;;11.77;10.87;;;;;;;18.95;72.54;93320.03;5128458;27;20196;-78
2022/10/01 08:22:27;;;;;;;16.67;11.93;;;;;;;18.48;76.40;93336.81;5130858;27;20248;-78
2022/10/01 08:24:53;;;;;;;14.63;13.30;;;;;;;18.54;76.64;93339.00;5132451;28;20208;-78
2022/10/01 08:27:18;;;;;;;13.47;12.47;;;;;;;18.52;74.48;93348.34;5132414;28;20220;-78
2022/10/01 08:29:44;;;;;;;16.47;14.73;;;;;;;18.38;79.00;93323.91;5132106;28;20203;-77
2022/10/01 08:32:10;;;;;;;14.97;13.20;;;;;;;18.29;78.37;93323.84;5132930;27;20219;-77
2022/10/01 08:34:35;;;;;;;11.57;10.60;;;;;;;18.18;77.89;93319.16;5132090;28;20220;-78
2022/10/01 08:37:01;;;;;;;18.27;11.30;;;;;;;17.87;76.75;93292.03;5131733;28;20297;-78
2022/10/01 08:39:26;;;;;;;12.70;11.60;;;;;;;18.20;74.63;93312.47;5130877;28;20211;-77
2022/10/01 08:42:06;;;;;;;12.07;11.07;;;;;;;18.04;78.54;93310.56;5132508;27;20220;-78
2022/10/01 08:44:42;;;;;;;10.80;10.10;;;;;;;18.43;72.30;93331.66;5131495;28;20200;-78
2022/10/01 08:47:27;;;;;;;11.33;10.53;;;;;;;18.39;72.68;93312.22;5132637;28;20226;-78
2022/10/01 08:49:59;;;;;;;10.67;10.07;;;;;;;18.81;68.97;93292.97;5133105;28;20206;-77
2022/10/01 08:52:32;;;;;;;11.67;10.87;;;;;;;18.77;66.86;93294.69;5130238;28;20230;-78
2022/10/01 08:55:03;;;;;;;13.63;10.67;;;;;;;18.63;70.13;93294.06;5132111;28;20192;-78
2022/10/01 08:57:36;;;;;;;12.90;11.60;;;;;;;18.42;75.80;93296.53;5130599;28;20311;-75
2022/10/01 09:00:09;;;;;;;13.40;12.30;;;;;;;18.10;76.78;93325.97;5131607;28;20217;-75
2022/10/01 09:02:38;;;;;;;12.37;11.27;;;;;;;18.17;77.11;93346.66;5129779;28;20299;-75
2022/10/01 09:05:29;;;;;;;16.17;11.30;;;;;;;18.04;75.81;93368.72;5131437;28;20592;-75
2022/10/01 09:08:01;;;;;;;11.23;10.33;;;;;;;18.30;76.46;93356.34;5131440;28;20232;-75
2022/10/01 09:10:52;;;;;;;12.10;9.93;;;;;;;18.12;76.60;93381.16;5130838;28;20188;-76
2022/10/01 09:14:08;;;;;;;9.93;9.00;;;;;;;17.99;80.43;93355.63;5126351;28;20257;-76
2022/10/01 09:16:38;;;;;;;8.03;7.53;;;;;;;18.46;77.11;93376.03;5131344;28;20199;-76
2022/10/01 09:19:06;;;;;;;8.27;7.87;;;;;;;18.84;78.46;93416.69;5131580;28;21637;-76
2022/10/01 09:21:54;;;;;;;7.97;7.57;;;;;;;18.78;82.73;93423.22;5131543;27;20203;-76
2022/10/01 09:24:40;;;;;;;7.50;6.97;;;;;;;18.71;82.98;93412.31;5131424;28;20200;-76
2022/10/01 09:27:14;;;;;;;8.07;7.57;;;;;;;18.62;81.47;93406.22;5119971;27;20219;-76
2022/10/01 09:29:43;;;;;;;9.30;8.63;;;;;;;18.81;83.78;93427.91;5130597;28;20287;-76
2022/10/01 09:32:14;;;;;;;7.70;7.20;;;;;;;18.55;84.04;93390.81;5129912;28;20279;-75
2022/10/01 09:34:42;;;;;;;8.53;7.83;;;;;;;18.59;84.45;93423.50;5128934;28;20870;-75
2022/10/01 09:38:06;;;;;;;7.50;7.17;;;;;;;18.55;85.63;93401.38;5131602;28;20283;-75
2022/10/01 09:40:51;;;;;;;10.17;9.37;;;;;;;18.45;89.88;93424.69;5076934;28;20663;-75
2022/10/01 09:43:20;;;;;;;9.47;8.87;;;;;;;18.41;84.05;93426.41;5130290;28;20234;-75
2022/10/01 09:45:46;;;;;;;8.70;8.27;;;;;;;18.28;84.54;93406.88;5131287;28;20278;-75
2022/10/01 09:48:33;;;;;;;10.43;9.63;;;;;;;18.12;87.75;93397.00;5130042;28;20223;-75
2022/10/01 09:51:06;;;;;;;8.10;7.70;;;;;;;18.14;88.02;93393.00;5127880;28;20684;-75
2022/10/01 09:53:37;;;;;;;9.17;8.57;;;;;;;18.43;87.47;93376.63;5130501;28;20219;-75
2022/10/01 09:56:10;;;;;;;9.73;9.07;;;;;;;18.37;84.63;93331.00;5129143;28;20190;-76
2022/10/01 09:58:38;;;;;;;9.77;9.27;;;;;;;18.53;84.64;93336.66;5130193;28;20223;-75
2022/10/01 10:01:16;;;;;;;9.30;8.90;;;;;;;18.53;82.71;93339.31;5130428;28;20223;-76
2022/10/01 10:03:52;;;;;;;9.27;8.63;;;;;;;18.59;81.55;93341.50;5127487;28;20257;-76
2022/10/01 10:06:26;;;;;;;8.87;8.23;;;;;;;18.66;83.22;93320.66;5131222;28;20191;-76
2022/10/01 10:08:52;;;;;;;9.67;8.90;;;;;;;18.65;83.38;93305.09;5129030;28;20219;-75
2022/10/01 10:11:24;;;;;;;8.50;7.80;;;;;;;18.51;81.84;93270.88;5129162;28;20221;-76
2022/10/01 10:13:53;;;;;;;8.70;8.00;;;;;;;18.88;79.63;93301.19;5128790;28;20254;-75
2022/10/01 10:16:31;;;;;;;8.30;7.80;;;;;;;19.12;78.81;93327.97;5130208;28;20213;-75
2022/10/01 10:19:09;;;;;;;8.07;7.43;;;;;;;19.44;75.40;93388.41;5130294;28;20212;-75
2022/10/01 10:21:34;;;;;;;8.63;7.93;;;;;;;19.31;74.92;93391.22;5129049;28;20184;-76
2022/10/01 10:24:02;;;;;;;9.53;8.83;;;;;;;19.11;76.27;93374.06;5130939;28;20212;-76
2022/10/01 10:26:30;;;;;;;9.93;9.13;;;;;;;18.97;81.14;93373.44;5129248;28;20203;-76
2022/10/01 10:28:57;;;;;;;11.03;10.07;;;;;;;18.88;84.78;93370.78;5129723;28;20219;-75
2022/10/01 10:31:25;;;;;;;10.67;9.87;;;;;;;18.96;82.69;93364.72;5127836;28;20194;-76
2022/10/01 10:34:13;;;;;;;9.67;8.97;;;;;;;18.97;82.20;93354.94;5129209;28;20225;-76
2022/10/01 10:36:40;;;;;;;11.47;10.37;;;;;;;18.91;84.36;93380.00;5144871;27;20229;-74
2022/10/01 10:39:23;;;;;;;9.70;9.13;;;;;;;18.91;84.98;93372.06;5130225;28;20365;-73
2022/10/01 10:41:51;;;;;;;11.40;10.57;;;;;;;18.75;87.42;93384.16;5128565;28;20283;-74
2022/10/01 10:44:21;;;;;;;9.10;8.50;;;;;;;18.64;88.71;93385.53;5127786;27;20225;-74
2022/10/01 10:46:49;;;;;;;10.97;10.07;;;;;;;18.41;95.68;93374.28;5127796;28;20184;-75
2022/10/01 10:49:30;;;;;;;9.87;9.27;;;;;;;18.78;87.72;93367.66;5127742;28;20180;-77
2022/10/01 10:51:57;;;;;;;8.53;7.97;;;;;;;18.82;84.65;93368.59;5128667;28;20270;-76
2022/10/01 10:54:28;;;;;;;10.27;9.67;;;;;;;18.60;83.26;93380.09;5130539;27;20179;-75
2022/10/01 10:57:20;;;;;;;12.00;11.10;;;;;;;18.66;87.99;93351.63;5124531;27;20231;-79
2022/10/01 10:59:55;;;;;;;11.03;10.23;;;;;;;18.27;96.46;93364.91;5126789;28;20220;-73
2022/10/01 11:02:23;;;;;;;9.80;9.00;;;;;;;18.30;93.87;93362.44;5125772;27;20260;-74
2022/10/01 11:04:49;;;;;;;11.50;10.33;;;;;;;18.15;97.27;93349.59;5128878;28;20184;-77
2022/10/01 11:07:20;;;;;;;11.30;10.20;;;;;;;18.17;95.69;93350.09;5126155;28;20227;-77
2022/10/01 11:10:01;;;;;;;8.93;8.27;;;;;;;18.10;94.22;93320.66;5125958;27;20246;-81
2022/10/01 11:12:33;;;;;;;8.50;7.70;;;;;;;18.09;91.83;93318.34;5127640;28;20231;-77
2022/10/01 11:15:20;;;;;;;8.93;8.43;;;;;;;18.37;88.80;93303.78;5127241;28;20213;-77
2022/10/01 11:18:21;;;;;;;8.33;7.93;;;;;;;18.48;89.97;93279.41;5126214;27;20728;-76
2022/10/01 11:21:27;;;;;;;8.40;7.53;;;;;;;18.84;88.90;93228.84;5126809;28;20198;-76
2022/10/01 11:24:15;;;;;;;8.90;8.30;;;;;;;18.78;95.01;93240.69;5128571;28;20219;-74
2022/10/01 11:26:52;;;;;;;9.23;8.63;;;;;;;19.19;89.82;93252.28;5126329;28;20192;-74
2022/10/01 11:29:39;;;;;;;8.30;7.90;;;;;;;19.17;90.04;93253.69;5127755;28;20205;-70
2022/10/01 11:32:21;;;;;;;8.60;8.10;;;;;;;18.91;92.78;93266.19;5125278;28;20225;-72